Weather at Brussels Airport

Public forecast

Using degrees Celsius for public forecast. Weather courtesy of forecast.io.

Current aviation weather report (METAR) for Brussels Airport

Retrieved 2020/12/03 20:20 UTC (0 seconds ago):

EBBR 032020Z 16012KT 9999 -RA SCT018 BKN025 06/04 Q0984 NOSIG

Aviation forecast (TAF) for Brussels Airport

Retrieved 2020/12/03 18:28 UTC (2 hours ago):

TAF EBBR 031710Z 0318/0424 16014KT 9999 SCT010 BKN020 PROB40 TEMPO 0318/0403 4000 -RA BKN008 PROB40 TEMPO 0321/0403 16015G25KT TEMPO 0403/0412 18018G30KT PROB30 TEMPO 0412/0418 18018G28KT 4000 SHRA